EW9364 Weather Reports


Display with metric or nautical units.
time (UTC)temp
F
wind
direction
speed
MPH
gust
MPH
rain 1hr
in
rain 24hr
in
rain mn
in
humidity
%
barometer
mb
20200403070035 32 202 0.0 0.0 0.00 0.00 0.00 86 1.0
20200403064526 32 202 1.0 0.0 0.00 0.00 0.00 85 1.0
20200403063024 32 46 0.0 0.0 0.00 0.00 0.00 83 1.0
20200403061527 34 45 0.0 0.0 0.00 0.00 0.00 80 1.0
20200403060027 36 45 0.0 0.0 0.00 0.00 0.00 77 1.0
20200403054526 39 338 0.0 0.0 0.00 0.00 0.00 73 1.0
20200403053027 39 305 0.0 0.0 0.00 0.00 0.00 73 1.0
20200403051526 39 247 1.0 0.0 0.00 0.00 0.00 72 1.0
20200403050028 41 237 1.0 0.0 0.00 0.00 0.00 71 1.0
20200403044529 41 233 3.0 0.0 0.00 0.00 0.00 71 1.0
20200403043026 42 235 4.0 0.0 0.00 0.00 0.00 70 1.0
20200403041527 42 244 5.0 0.0 0.00 0.00 0.00 70 1.0
20200403040026 42 258 4.0 0.0 0.00 0.00 0.00 70 1.0
20200403034527 41 273 1.0 0.0 0.00 0.00 0.00 74 1.0
20200403033028 41 307 2.0 0.0 0.00 0.00 0.00 75 1.0
20200403031529 42 9 3.0 0.0 0.00 0.00 0.00 74 1.0
20200403030028 42 15 5.0 0.0 0.00 0.00 0.00 72 1.0
20200403024535 43 5 3.0 0.0 0.00 0.00 0.00 71 1.0
20200403023033 43 286 2.0 0.0 0.00 0.00 0.00 70 1.0
20200403021525 44 355 3.0 0.0 0.00 0.00 0.00 68 1.0
20200403020027 45 325 3.0 0.0 0.00 0.00 0.00 65 1.0
20200403014529 45 295 4.0 0.0 0.00 0.00 0.00 63 1.0
20200403013031 46 321 5.0 0.0 0.00 0.00 0.00 60 1.0
20200403011529 48 5 5.0 0.0 0.00 0.00 0.00 55 1.0
20200403010027 50 342 6.0 0.0 0.00 0.00 0.00 49 1.0
20200403004525 51 304 5.0 0.0 0.00 0.00 0.00 46 1.0
20200403003026 51 269 5.0 0.0 0.00 0.00 0.00 45 1.0
20200403001529 51 306 5.0 0.0 0.00 0.00 0.00 44 1.0
20200403000111 51 281 5.0 0.0 0.00 0.00 0.00 45 1.0
20200402234527 52 243 7.0 0.0 0.00 0.00 0.00 47 1.0
20200402233029 50 263 5.0 0.0 0.00 0.00 0.00 52 1.0
20200402231528 50 307 3.0 0.0 0.00 0.00 0.00 54 1.0
20200402230026 49 336 3.0 0.0 0.00 0.00 0.00 55 1.0
20200402224533 49 337 4.0 0.0 0.00 0.00 0.00 57 1.0
20200402223034 50 339 5.0 0.0 0.00 0.00 0.00 59 1.0
20200402221527 48 307 3.0 0.0 0.00 0.00 0.00 65 1.0
20200402220031 46 307 3.0 0.0 0.00 0.00 0.00 71 1.0
20200402214531 45 181 2.0 0.0 0.00 0.00 0.00 77 1.0
20200402213029 44 189 5.0 0.0 0.00 0.00 0.00 74 1.0
20200402211535 46 253 5.0 0.0 0.00 0.00 0.00 67 1.0
20200402210028 47 11 6.0 0.0 0.00 0.00 0.00 66 1.0
20200402204525 46 358 3.0 0.0 0.00 0.00 0.00 66 1.0
20200402203027 46 9 5.0 0.0 0.00 0.00 0.00 67 1.0
20200402201532 46 40 5.0 0.0 0.00 0.00 0.00 67 1.0
20200402200036 47 26 7.0 0.0 0.00 0.00 0.00 66 1.0
20200402194534 49 14 5.0 0.0 0.00 0.00 0.00 64 1.0
20200402193028 49 116 2.0 0.0 0.00 0.00 0.00 67 1.0
20200402191531 46 125 1.0 0.0 0.00 0.00 0.00 69 1.0
20200402190037 46 40 2.0 0.0 0.00 0.00 0.00 72 1.0
20200402184526 45 41 2.0 0.0 0.00 0.00 0.00 73 1.0
20200402183031 45 44 3.0 0.0 0.00 0.00 0.00 71 1.0
20200402181528 45 60 3.0 0.0 0.00 0.00 0.00 69 1.0
20200402180025 45 97 2.0 0.0 0.00 0.00 0.00 70 1.0
20200402174530 45 108 2.0 0.0 0.00 0.00 0.00 71 1.0
20200402173030 44 132 1.0 0.0 0.00 0.00 0.00 75 1.0
20200402171528 42 93 0.0 0.0 0.00 0.00 0.00 80 1.0
20200402170029 41 48 0.0 0.0 0.00 0.00 0.00 83 1.0
20200402164527 40 45 0.0 0.0 0.00 0.00 0.00 83 1.0
20200402163025 40 45 1.0 0.0 0.00 0.00 0.00 83 1.0
20200402161526 40 52 2.0 0.0 0.00 0.00 0.00 82 1.0
20200402160029 41 67 0.0 0.0 0.00 0.00 0.00 82 1.0
20200402154525 40 67 0.0 0.0 0.00 0.00 0.00 84 1.0
20200402153027 39 59 2.0 0.0 0.00 0.00 0.00 88 1.0
20200402151526 36 45 1.0 0.0 0.00 0.01 0.00 93 1.0
20200402150028 34 201 0.0 0.0 0.00 0.01 0.00 94 1.0
20200402144526 32 202 0.0 0.0 0.00 0.02 0.00 94 1.0
20200402143027 31 222 0.0 0.0 0.00 0.02 0.00 94 1.0
20200402141527 30 225 2.0 0.0 0.00 0.02 0.00 94 1.0
20200402140031 30 225 3.0 0.0 0.00 0.02 0.00 93 1.0
20200402134527 30 225 3.0 0.0 0.00 0.02 0.00 93 1.0
20200402133027 31 225 2.0 0.0 0.00 0.02 0.00 93 1.0
20200402131526 31 232 1.0 0.0 0.00 0.02 0.00 94 1.0
20200402130022 30 238 3.0 0.0 0.00 0.02 0.00 94 1.0
20200402124530 30 225 2.0 0.0 0.00 0.02 0.00 94 1.0
20200402123026 30 225 3.0 0.0 0.00 0.02 0.00 94 1.0
20200402121526 30 225 3.0 0.0 0.00 0.02 0.00 94 1.0
20200402120026 31 225 3.0 0.0 0.00 0.02 0.00 94 1.0
20200402114530 30 225 2.0 0.0 0.00 0.02 0.00 93 1.0
20200402113027 30 225 1.0 0.0 0.00 0.02 0.00 93 1.0
20200402111526 30 225 2.0 0.0 0.00 0.02 0.00 93 1.0
20200402110027 30 225 2.0 0.0 0.00 0.02 0.00 92 1.0
20200402104524 29 225 2.0 0.0 0.00 0.02 0.00 92 1.0
20200402103028 29 225 1.0 0.0 0.00 0.02 0.00 92 1.0
20200402101527 30 225 1.0 0.0 0.00 0.02 0.00 91 1.0
20200402100025 30 225 1.0 0.0 0.00 0.02 0.00 90 1.0
20200402094525 31 225 2.0 0.0 0.00 0.02 0.00 90 1.0
20200402093025 31 225 2.0 0.0 0.00 0.02 0.00 89 1.0
20200402091529 31 225 1.0 0.0 0.00 0.02 0.00 89 1.0
20200402090025 31 225 2.0 0.0 0.00 0.02 0.00 88 1.0
20200402084525 31 225 1.0 0.0 0.00 0.02 0.00 86 1.0
20200402083037 32 225 2.0 0.0 0.00 0.02 0.00 86 1.0
20200402081527 32 234 2.0 0.0 0.00 0.02 0.00 84 1.0
20200402074526 38 319 1.0 0.0 0.00 0.02 0.00 77 1.0
20200402073026 37 354 2.0 0.0 0.00 0.02 0.00 79 1.0
20200402071528 36 1 0.0 0.0 0.00 0.02 0.00 80 1.0